Time;durP1;ratioP1;P1;durP2;ratioP2;P2;SDS_P1;SDS_P2;PMS_P1;PMS_P2;Temp;Humidity;BMP_temperature;BMP_pressure;BME280_temperature;BME280_humidity;BME280_pressure;Samples;Min_cycle;Max_cycle;Signal;HPM_P1;HPM_P2
2022/04/26 03:37:38;;;;;;;18.92;11.75;;;;;;;8.27;100.00;99901.00;5118165;27;20047;-73
2022/04/26 03:40:07;;;;;;;15.70;10.77;;;;;;;8.36;100.00;99902.31;5117709;27;20047;-74
2022/04/26 03:42:36;;;;;;;18.10;11.77;;;;;;;8.31;100.00;99904.38;5136536;27;20035;-73
2022/04/26 03:45:04;;;;;;;15.80;11.70;;;;;;;8.37;100.00;99906.69;5118078;27;20136;-73
2022/04/26 03:47:33;;;;;;;16.52;11.38;;;;;;;8.33;100.00;99902.47;5136384;27;20069;-72
2022/04/26 03:50:03;;;;;;;17.25;11.68;;;;;;;8.29;100.00;99914.19;5136045;27;20039;-72
2022/04/26 03:52:31;;;;;;;14.95;10.68;;;;;;;8.38;100.00;99916.38;5117990;27;20051;-72
2022/04/26 03:55:02;;;;;;;16.70;11.13;;;;;;;8.37;100.00;99924.44;5136076;27;20043;-71
2022/04/26 03:57:30;;;;;;;16.35;10.70;;;;;;;8.43;100.00;99924.09;5136334;27;20047;-71
2022/04/26 03:59:58;;;;;;;18.33;11.82;;;;;;;8.47;100.00;99918.53;5117439;27;20071;-72
2022/04/26 04:02:26;;;;;;;16.55;10.93;;;;;;;8.55;100.00;99916.28;5117767;27;20135;-71
2022/04/26 04:04:55;;;;;;;17.58;10.38;;;;;;;8.54;100.00;99924.34;5135822;27;20047;-72
2022/04/26 04:07:25;;;;;;;15.30;10.10;;;;;;;8.55;100.00;99926.06;5117253;27;20131;-71
2022/04/26 04:09:54;;;;;;;15.73;10.52;;;;;;;8.60;100.00;99932.84;5117460;27;20096;-72
2022/04/26 04:12:22;;;;;;;14.00;8.82;;;;;;;8.77;100.00;99931.84;5117346;27;20100;-72
2022/04/26 04:14:51;;;;;;;14.30;9.82;;;;;;;9.00;100.00;99941.19;5135621;27;20130;-72
2022/04/26 04:17:19;;;;;;;14.93;10.23;;;;;;;9.27;100.00;99946.69;5117332;27;20051;-71
2022/04/26 04:19:47;;;;;;;14.27;9.55;;;;;;;9.91;100.00;99941.88;5135574;27;20088;-72
2022/04/26 04:22:16;;;;;;;12.85;8.80;;;;;;;10.20;100.00;99948.91;5117502;27;20053;-71
2022/04/26 04:24:45;;;;;;;14.38;9.57;;;;;;;10.59;100.00;99955.34;5117105;27;20051;-71
2022/04/26 04:27:14;;;;;;;12.68;9.32;;;;;;;11.20;100.00;99948.63;5116924;27;20051;-71
2022/04/26 04:29:44;;;;;;;13.10;9.70;;;;;;;11.05;100.00;99952.31;5136005;27;20095;-71
2022/04/26 04:32:12;;;;;;;11.90;9.20;;;;;;;10.98;100.00;99959.00;5138438;27;20440;-72
2022/04/26 04:34:41;;;;;;;12.70;9.20;;;;;;;11.15;100.00;99961.41;5120562;27;20502;-72
2022/04/26 04:37:09;;;;;;;13.75;9.20;;;;;;;11.29;100.00;99964.03;5135821;27;20123;-72
2022/04/26 04:39:38;;;;;;;12.65;8.82;;;;;;;10.89;100.00;99966.66;5117203;27;20135;-72
2022/04/26 04:42:09;;;;;;;12.30;8.60;;;;;;;10.64;100.00;99958.56;5117051;27;20054;-70
2022/04/26 04:44:38;;;;;;;12.75;8.82;;;;;;;10.18;100.00;99971.28;5135711;27;20070;-70
2022/04/26 04:47:06;;;;;;;14.23;9.20;;;;;;;9.95;100.00;99972.72;5117189;27;20043;-70
2022/04/26 04:49:34;;;;;;;14.63;8.95;;;;;;;9.73;100.00;99970.50;5116955;27;20047;-72
2022/04/26 04:52:04;;;;;;;13.07;8.77;;;;;;;9.40;100.00;99973.41;5116362;27;20151;-73
2022/04/26 04:54:32;;;;;;;14.13;9.15;;;;;;;9.63;100.00;99972.88;5117347;27;20134;-71
2022/04/26 04:57:04;;;;;;;14.15;9.18;;;;;;;9.68;100.00;99978.78;5134764;27;20073;-69
2022/04/26 04:59:33;;;;;;;14.63;9.50;;;;;;;9.83;100.00;99982.31;5116603;27;20458;-70
2022/04/26 05:02:02;;;;;;;14.95;9.52;;;;;;;10.13;100.00;99989.34;5115966;27;20496;-72
2022/04/26 05:04:31;;;;;;;11.48;8.38;;;;;;;9.94;100.00;99979.88;5115646;27;20131;-72
2022/04/26 05:06:59;;;;;;;13.02;9.10;;;;;;;10.12;100.00;99985.84;5115784;27;20125;-72
2022/04/26 05:09:27;;;;;;;15.52;9.18;;;;;;;10.30;100.00;99991.84;5116588;27;20047;-72
2022/04/26 05:11:55;;;;;;;12.18;8.70;;;;;;;10.50;100.00;99987.94;5134382;27;20492;-72
2022/04/26 05:14:25;;;;;;;14.50;9.20;;;;;;;10.83;100.00;99995.56;5115988;27;20104;-70
2022/04/26 05:16:55;;;;;;;12.45;8.75;;;;;;;11.01;100.00;99999.72;5134552;27;20064;-69
2022/04/26 05:19:23;;;;;;;12.30;8.90;;;;;;;11.06;100.00;99996.72;5115981;27;20047;-70
2022/04/26 05:21:51;;;;;;;12.73;9.00;;;;;;;11.20;100.00;100002.03;5116092;27;20047;-71
2022/04/26 05:27:05;;;;;;;12.52;8.30;;;;;;;11.67;100.00;100011.28;5115613;27;20047;-71
2022/04/26 05:29:33;;;;;;;12.00;8.18;;;;;;;12.01;100.00;100012.53;5116189;27;20047;-71
2022/04/26 05:32:04;;;;;;;13.07;8.18;;;;;;;12.33;100.00;100008.41;5134281;27;20127;-71
2022/04/26 05:34:32;;;;;;;13.60;8.18;;;;;;;12.60;100.00;100005.59;5115816;27;20047;-72
2022/04/26 05:37:00;;;;;;;12.55;8.20;;;;;;;13.13;100.00;100011.53;5115492;27;20043;-72
2022/04/26 05:39:29;;;;;;;10.35;7.65;;;;;;;13.57;100.00;100004.66;5115765;27;20055;-71
2022/04/26 05:41:57;;;;;;;10.68;7.18;;;;;;;13.55;100.00;100006.59;5133559;27;20039;-72
2022/04/26 05:44:26;;;;;;;10.13;7.22;;;;;;;14.24;100.00;100007.44;5115884;27;20094;-71
2022/04/26 05:46:54;;;;;;;12.07;7.80;;;;;;;15.11;100.00;100007.59;5115495;27;20085;-71
2022/04/26 05:49:24;;;;;;;9.57;7.07;;;;;;;15.13;100.00;100016.38;5115680;27;20058;-71
2022/04/26 05:51:52;;;;;;;11.02;7.85;;;;;;;15.39;100.00;100009.69;5115714;27;20460;-70
2022/04/26 05:54:20;;;;;;;10.65;7.05;;;;;;;14.87;100.00;100019.38;5133517;27;20166;-69
2022/04/26 05:56:52;;;;;;;11.23;6.85;;;;;;;15.13;100.00;100021.75;5115159;28;20070;-69
2022/04/26 05:59:21;;;;;;;13.32;6.93;;;;;;;15.22;100.00;100015.63;5114857;28;20080;-74
2022/04/26 06:01:50;;;;;;;10.90;7.18;;;;;;;15.03;100.00;100015.44;5115097;28;20051;-73
2022/04/26 06:04:19;;;;;;;8.90;6.72;;;;;;;15.57;100.00;100020.72;5117015;27;20561;-70
2022/04/26 06:06:48;;;;;;;8.70;6.75;;;;;;;16.10;100.00;100017.13;5119549;27;20051;-72
2022/04/26 06:09:17;;;;;;;9.68;6.43;;;;;;;16.36;100.00;100009.47;5119424;27;20051;-70
2022/04/26 06:11:45;;;;;;;9.65;6.72;;;;;;;16.31;100.00;100015.28;5138209;27;20066;-70
2022/04/26 06:14:16;;;;;;;9.23;6.30;;;;;;;16.47;100.00;100010.22;5119009;27;20146;-71
2022/04/26 06:16:44;;;;;;;8.13;6.22;;;;;;;17.02;100.00;100010.72;5138042;27;20039;-71
2022/04/26 06:19:13;;;;;;;7.80;5.88;;;;;;;17.16;97.04;100006.75;5119555;27;20133;-71
2022/04/26 06:21:42;;;;;;;7.90;6.28;;;;;;;17.41;92.23;100014.28;5137841;27;20399;-71
2022/04/26 06:24:12;;;;;;;11.50;6.85;;;;;;;17.84;83.50;100021.09;5119161;27;20075;-71
2022/04/26 06:26:46;;;;;;;8.07;6.15;;;;;;;17.40;81.62;100019.84;5137903;27;20051;-70
2022/04/26 06:29:14;;;;;;;8.63;6.40;;;;;;;17.80;76.94;100013.44;5137263;27;20539;-71
2022/04/26 06:31:42;;;;;;;7.93;5.82;;;;;;;17.72;76.18;100009.63;5119313;27;20047;-69
2022/04/26 06:34:11;;;;;;;7.80;5.45;;;;;;;17.68;74.86;100010.03;5119343;27;20121;-70
2022/04/26 06:36:39;;;;;;;8.82;5.82;;;;;;;17.30;77.21;100008.19;5119131;27;20043;-72
2022/04/26 06:39:07;;;;;;;9.38;6.40;;;;;;;17.72;72.95;100020.41;5136979;27;20054;-73
2022/04/26 06:41:37;;;;;;;8.73;5.95;;;;;;;18.03;72.54;100014.81;5119188;27;20047;-71
2022/04/26 06:44:05;;;;;;;8.65;6.30;;;;;;;18.50;66.15;100009.41;5137094;27;20483;-72
2022/04/26 06:46:35;;;;;;;7.32;5.10;;;;;;;18.61;64.61;100014.59;5113484;28;20136;-72
2022/04/26 06:49:05;;;;;;;7.40;4.80;;;;;;;17.78;65.77;100010.91;5098542;28;20118;-71
2022/04/26 06:51:35;;;;;;;8.60;5.53;;;;;;;17.55;67.01;100012.16;5116696;28;20413;-72
2022/04/26 06:54:03;;;;;;;8.60;5.60;;;;;;;17.52;67.54;100001.66;5098128;28;20507;-72
2022/04/26 06:56:31;;;;;;;7.93;4.95;;;;;;;16.72;68.89;100005.41;5098689;28;20130;-70
2022/04/26 06:59:01;;;;;;;7.53;5.25;;;;;;;16.32;68.92;100008.91;5098209;28;20059;-71
2022/04/26 07:01:33;;;;;;;7.77;4.47;;;;;;;16.45;67.00;100012.22;5116692;28;20102;-71
2022/04/26 07:04:09;;;;;;;6.40;4.53;;;;;;;16.03;67.29;100012.31;5098135;28;20437;-71
2022/04/26 07:06:38;;;;;;;5.28;3.90;;;;;;;15.76;69.45;100013.81;5098334;28;20105;-71
2022/04/26 07:09:06;;;;;;;6.68;4.45;;;;;;;15.73;69.03;100009.56;5097836;28;20051;-72
2022/04/26 07:11:35;;;;;;;6.78;4.75;;;;;;;15.38;73.70;100021.41;5115938;28;20414;-71
2022/04/26 07:14:05;;;;;;;6.88;4.70;;;;;;;15.43;70.75;100027.25;5097323;28;20055;-71
2022/04/26 07:16:33;;;;;;;8.20;5.00;;;;;;;15.62;73.61;100025.72;5115952;28;20062;-71
2022/04/26 07:19:01;;;;;;;8.82;4.85;;;;;;;15.80;69.61;100031.38;5097436;28;20054;-71
2022/04/26 07:21:30;;;;;;;6.97;4.20;;;;;;;15.70;69.29;100026.78;5115879;28;20050;-73
2022/04/26 07:24:18;;;;;;;5.97;4.07;;;;;;;15.30;69.25;100039.16;5097182;28;20130;-71
2022/04/26 07:26:46;;;;;;;5.78;4.00;;;;;;;15.41;68.89;100037.28;5115741;28;20047;-71
2022/04/26 07:29:17;;;;;;;6.72;4.22;;;;;;;15.37;69.48;100033.16;5096780;28;20052;-72
2022/04/26 07:31:46;;;;;;;8.15;4.72;;;;;;;15.13;69.50;100040.56;5115818;28;20042;-71
2022/04/26 07:34:23;;;;;;;6.88;4.40;;;;;;;15.18;67.04;100035.66;5115236;28;20078;-72
2022/04/26 07:36:53;;;;;;;6.28;4.32;;;;;;;14.74;69.20;100042.81;5115664;28;20102;-71
2022/04/26 07:39:22;;;;;;;5.95;3.70;;;;;;;14.91;69.38;100043.28;5097051;28;20048;-71
2022/04/26 07:41:50;;;;;;;5.38;3.38;;;;;;;14.66;68.67;100045.25;5098125;28;20408;-71
2022/04/26 07:44:20;;;;;;;5.90;3.80;;;;;;;14.83;70.60;100050.13;5115512;28;20047;-71
2022/04/26 07:46:51;;;;;;;6.15;3.80;;;;;;;14.87;70.50;100053.44;5097362;28;20410;-71
2022/04/26 07:49:21;;;;;;;5.45;3.78;;;;;;;15.06;68.97;100058.19;5097261;28;20051;-71
2022/04/26 07:51:49;;;;;;;5.15;3.00;;;;;;;15.15;65.59;100057.38;5097364;28;20048;-71
2022/04/26 07:54:18;;;;;;;4.30;2.80;;;;;;;15.21;65.62;100056.03;5115173;28;20043;-71
2022/04/26 07:56:47;;;;;;;4.70;3.00;;;;;;;15.32;64.93;100056.00;5115538;28;20525;-70
2022/04/26 07:59:15;;;;;;;5.53;3.40;;;;;;;15.28;64.39;100066.16;5097164;28;20051;-70
2022/04/26 08:01:45;;;;;;;6.18;3.30;;;;;;;15.35;64.51;100064.69;5115402;28;20073;-71
2022/04/26 08:04:13;;;;;;;5.55;3.70;;;;;;;15.40;64.52;100057.06;5115080;28;20100;-70
2022/04/26 08:06:42;;;;;;;5.85;3.25;;;;;;;15.26;65.02;100064.59;5097028;28;20404;-71
2022/04/26 08:09:11;;;;;;;5.35;3.25;;;;;;;15.16;65.13;100054.59;5115322;28;20043;-72
2022/04/26 08:11:40;;;;;;;3.05;2.00;;;;;;;15.12;60.55;100063.03;5115167;28;20105;-72
2022/04/26 08:14:08;;;;;;;3.33;2.20;;;;;;;15.28;60.92;100062.63;5115084;28;20438;-77
2022/04/26 08:16:36;;;;;;;4.43;2.35;;;;;;;15.39;62.90;100063.44;5114950;28;20559;-72
2022/04/26 08:19:08;;;;;;;4.80;2.38;;;;;;;15.28;62.23;100062.63;5114966;28;20050;-72
2022/04/26 08:21:39;;;;;;;5.53;2.50;;;;;;;15.53;60.78;100056.03;5115027;28;20077;-71
2022/04/26 08:29:38;;;;;;;3.67;2.10;;;;;;;15.87;58.71;100060.31;5096354;28;20055;-71
2022/04/26 08:32:07;;;;;;;4.40;2.40;;;;;;;15.73;59.63;100052.59;5096852;28;20439;-72
2022/04/26 08:34:37;;;;;;;3.33;1.95;;;;;;;15.92;59.15;100060.81;5114477;28;20043;-71
2022/04/26 08:37:05;;;;;;;3.78;1.80;;;;;;;16.11;55.86;100061.88;5114797;28;20438;-71
2022/04/26 08:39:34;;;;;;;2.83;1.83;;;;;;;16.19;55.58;100060.25;5095725;28;20051;-72
2022/04/26 08:42:06;;;;;;;2.90;1.73;;;;;;;16.07;54.67;100065.84;5114317;28;20074;-72
2022/04/26 08:44:35;;;;;;;4.55;2.20;;;;;;;15.82;55.04;100064.38;5095737;28;20048;-72
2022/04/26 08:52:49;;;;;;;2.92;1.80;;;;;;;15.75;52.12;100064.06;5113690;28;20476;-71
2022/04/26 08:55:19;;;;;;;2.90;2.03;;;;;;;15.87;53.54;100060.31;5095208;28;20135;-72
2022/04/26 08:57:48;;;;;;;3.33;2.00;;;;;;;15.86;51.70;100065.84;5095246;28;20130;-72
2022/04/26 09:00:17;;;;;;;2.78;1.83;;;;;;;15.83;53.23;100058.03;5095474;28;20097;-72
2022/04/26 09:03:00;;;;;;;3.78;1.83;;;;;;;16.07;50.92;100060.47;5114072;28;20138;-71
2022/04/26 09:05:31;;;;;;;3.95;1.67;;;;;;;16.07;52.12;100052.38;5095611;28;20047;-71
2022/04/26 09:07:59;;;;;;;2.70;1.77;;;;;;;16.16;51.86;100060.50;5095979;28;20071;-72
2022/04/26 09:10:29;;;;;;;3.50;1.38;;;;;;;16.34;47.54;100063.47;5113821;28;20039;-72
2022/04/26 09:13:04;;;;;;;1.88;1.10;;;;;;;16.64;42.57;100065.28;5078522;28;20373;-72
2022/04/26 09:15:42;;;;;;;2.05;1.27;;;;;;;16.62;43.25;100063.72;5113692;28;20055;-71
2022/04/26 09:18:16;;;;;;;3.03;1.10;;;;;;;16.74;43.45;100059.97;5114107;28;20040;-72
2022/04/26 09:20:46;;;;;;;2.40;1.27;;;;;;;16.79;42.42;100060.41;5095731;28;20051;-72
2022/04/26 09:23:19;;;;;;;1.88;1.20;;;;;;;16.72;41.47;100061.97;5095145;28;20408;-72
2022/04/26 09:25:49;;;;;;;2.55;1.27;;;;;;;16.74;42.65;100062.66;5113667;28;20096;-72
2022/04/26 09:28:24;;;;;;;2.67;1.58;;;;;;;16.83;43.60;100060.00;5095675;28;20449;-72
2022/04/26 09:30:53;;;;;;;1.95;1.20;;;;;;;16.92;41.32;100066.41;5096002;28;20047;-72
2022/04/26 09:33:32;;;;;;;4.80;1.50;;;;;;;16.79;41.40;100063.97;5113986;28;20492;-72
2022/04/26 09:36:02;;;;;;;2.85;1.50;;;;;;;16.99;41.44;100064.03;5096080;28;20452;-72
2022/04/26 09:38:32;;;;;;;2.50;1.27;;;;;;;17.17;42.60;100063.19;5113870;28;20043;-72
2022/04/26 09:41:02;;;;;;;2.35;1.30;;;;;;;17.65;41.82;100057.00;5095923;28;20409;-72
2022/04/26 09:43:31;;;;;;;3.30;1.77;;;;;;;18.12;38.51;100048.19;5113854;28;20059;-72
2022/04/26 09:46:00;;;;;;;2.42;1.10;;;;;;;18.55;38.80;100050.34;5113666;28;20139;-71
2022/04/26 09:48:30;;;;;;;3.03;1.30;;;;;;;18.67;37.46;100051.88;5095514;28;20054;-72
2022/04/26 09:50:59;;;;;;;2.75;1.55;;;;;;;18.64;37.80;100054.00;5113511;28;20063;-71
2022/04/26 09:53:29;;;;;;;3.85;1.30;;;;;;;18.84;37.50;100048.38;5094974;28;20047;-71
2022/04/26 09:55:58;;;;;;;1.95;1.08;;;;;;;18.95;35.65;100043.78;5095247;28;20050;-70
2022/04/26 09:58:28;;;;;;;2.85;1.35;;;;;;;18.94;36.86;100044.78;5113392;28;20392;-73
2022/04/26 10:00:58;;;;;;;2.13;1.25;;;;;;;18.95;36.62;100046.47;5113643;28;20101;-71
2022/04/26 10:03:30;;;;;;;3.03;1.80;;;;;;;18.69;36.29;100047.16;5113446;28;20039;-71
2022/04/26 10:06:01;;;;;;;3.92;1.80;;;;;;;18.86;37.31;100043.69;5095562;28;20052;-72
2022/04/26 10:08:34;;;;;;;2.22;1.35;;;;;;;18.90;37.04;100046.06;5095052;28;20047;-71
2022/04/26 10:11:04;;;;;;;4.72;1.63;;;;;;;18.60;38.05;100037.22;5095456;28;20054;-72
2022/04/26 10:13:39;;;;;;;3.88;1.30;;;;;;;18.94;37.73;100039.38;5094732;28;20096;-72
2022/04/26 10:16:10;;;;;;;1.98;1.35;;;;;;;19.15;37.53;100038.09;5113602;28;20048;-72
2022/04/26 10:18:43;;;;;;;3.83;1.70;;;;;;;19.27;36.83;100036.00;5094976;28;20076;-71
2022/04/26 10:21:33;;;;;;;2.35;1.42;;;;;;;18.91;36.05;100031.56;5094666;28;20051;-71
2022/04/26 10:24:24;;;;;;;8.07;1.90;;;;;;;18.94;37.78;100024.00;5094400;28;20400;-71
2022/04/26 10:26:53;;;;;;;3.05;1.60;;;;;;;19.17;36.54;100035.22;5107499;28;20047;-71
2022/04/26 10:29:24;;;;;;;2.33;1.65;;;;;;;19.13;36.09;100021.19;5094838;28;20071;-72
2022/04/26 10:32:00;;;;;;;4.00;1.95;;;;;;;19.05;35.79;100022.94;5094791;28;20096;-72
2022/04/26 10:34:34;;;;;;;3.10;1.90;;;;;;;19.04;36.72;100019.41;5112573;28;20135;-72
2022/04/26 10:37:33;;;;;;;4.32;2.30;;;;;;;19.10;35.91;100024.16;5094950;28;20443;-72
2022/04/26 10:40:04;;;;;;;2.75;1.60;;;;;;;18.59;34.82;100013.91;5112897;28;20036;-72
2022/04/26 10:42:35;;;;;;;3.45;1.70;;;;;;;18.50;35.95;100021.06;5094365;28;20484;-72
2022/04/26 10:45:09;;;;;;;1.75;1.20;;;;;;;18.24;36.22;100020.88;5094502;28;20054;-72
2022/04/26 10:47:40;;;;;;;2.17;1.30;;;;;;;18.09;36.64;100027.75;5094370;28;20047;-71
2022/04/26 10:50:12;;;;;;;3.53;1.90;;;;;;;17.97;37.73;100018.13;5096390;28;20161;-71
2022/04/26 10:52:44;;;;;;;3.08;1.77;;;;;;;18.02;37.21;100027.47;5116772;28;20035;-71
2022/04/26 10:55:15;;;;;;;2.72;1.80;;;;;;;18.12;38.54;100019.34;5116955;28;20043;-71
2022/04/26 10:57:50;;;;;;;2.92;1.83;;;;;;;18.09;37.76;100014.25;5098232;28;20043;-72
2022/04/26 11:00:32;;;;;;;3.38;1.90;;;;;;;18.02;38.24;100010.41;5116908;28;20048;-72
2022/04/26 11:03:03;;;;;;;2.70;1.50;;;;;;;18.27;37.70;100017.03;5116837;28;20051;-72
2022/04/26 11:05:33;;;;;;;4.00;1.80;;;;;;;18.16;38.35;100012.66;5116332;28;20484;-72
2022/04/26 11:08:05;;;;;;;2.90;1.70;;;;;;;18.32;37.66;100017.44;5116447;28;20043;-72
2022/04/26 11:13:35;;;;;;;2.88;1.80;;;;;;;18.41;37.61;100010.28;5097855;28;20058;-75
2022/04/26 11:16:13;;;;;;;3.47;1.88;;;;;;;18.46;38.58;100008.88;5098114;28;20048;-72
2022/04/26 11:18:43;;;;;;;3.40;1.73;;;;;;;18.40;37.47;100008.59;5097826;28;20052;-72
2022/04/26 11:21:14;;;;;;;3.47;1.90;;;;;;;18.44;37.85;100010.03;5116084;28;20050;-71
2022/04/26 11:29:27;;;;;;;4.47;2.10;;;;;;;18.45;37.61;100011.72;5097954;28;20547;-71
2022/04/26 11:31:56;;;;;;;5.22;1.92;;;;;;;18.62;39.08;100013.59;5097866;28;20052;-71
2022/04/26 11:34:46;;;;;;;4.20;1.92;;;;;;;18.46;38.78;100008.00;5097319;28;20416;-72
2022/04/26 11:37:15;;;;;;;4.40;2.15;;;;;;;18.49;40.15;100002.31;5115559;28;20097;-72
2022/04/26 11:39:44;;;;;;;3.75;2.22;;;;;;;18.51;39.05;100016.50;5115761;28;20043;-71
2022/04/26 11:42:14;;;;;;;3.92;2.40;;;;;;;18.57;39.29;100010.53;5115866;28;20102;-71
2022/04/26 11:45:01;;;;;;;4.32;2.20;;;;;;;18.54;39.75;100011.69;5115667;28;20043;-72
2022/04/26 11:47:44;;;;;;;3.28;2.30;;;;;;;18.50;39.71;100010.25;5115812;28;20044;-71
2022/04/26 11:50:15;;;;;;;4.35;2.38;;;;;;;18.25;39.40;99998.28;5097914;28;20412;-71
2022/04/26 11:52:44;;;;;;;4.30;2.25;;;;;;;18.29;40.12;99998.84;5097246;28;20558;-71
2022/04/26 11:55:20;;;;;;;4.03;2.40;;;;;;;18.55;40.24;100004.41;5097361;28;20097;-71
2022/04/26 11:57:52;;;;;;;3.55;2.13;;;;;;;18.65;40.25;99997.16;5115496;28;20043;-72
2022/04/26 12:00:22;;;;;;;3.80;1.90;;;;;;;18.68;39.96;99996.00;5097076;28;20126;-72
2022/04/26 12:02:51;;;;;;;3.33;2.10;;;;;;;18.92;40.45;99992.75;5114833;28;20040;-71
2022/04/26 12:05:23;;;;;;;3.50;2.10;;;;;;;18.86;40.27;99997.75;5115320;28;20044;-72
2022/04/26 12:07:52;;;;;;;4.47;2.28;;;;;;;18.80;41.46;99995.63;5096799;28;20171;-72
2022/04/26 12:10:32;;;;;;;4.20;2.15;;;;;;;18.75;41.22;99992.53;5096777;28;20079;-71
2022/04/26 12:13:05;;;;;;;4.10;2.20;;;;;;;18.80;41.71;99990.22;5096493;28;20108;-71
2022/04/26 12:15:37;;;;;;;3.53;2.10;;;;;;;18.69;41.69;99993.13;5114439;28;20051;-72
2022/04/26 12:18:13;;;;;;;5.10;2.30;;;;;;;18.66;41.37;99988.03;5114742;28;20433;-71
2022/04/26 12:20:57;;;;;;;4.80;2.35;;;;;;;18.83;41.24;99992.66;5096449;28;20078;-73
2022/04/26 12:23:27;;;;;;;5.03;2.95;;;;;;;18.69;41.23;99982.34;5114785;28;20061;-74
2022/04/26 12:25:56;;;;;;;5.63;2.58;;;;;;;18.97;42.32;99974.19;5114534;28;20481;-72
2022/04/26 12:28:26;;;;;;;5.38;2.80;;;;;;;19.43;41.64;99979.41;5114934;28;20377;-72
2022/04/26 12:30:56;;;;;;;4.18;2.40;;;;;;;19.83;41.03;99979.91;5114919;28;20373;-72
2022/04/26 12:33:29;;;;;;;4.97;2.72;;;;;;;19.74;41.03;99976.28;5096755;28;20405;-72
2022/04/26 12:35:59;;;;;;;4.72;2.90;;;;;;;19.77;40.79;99965.13;5115181;28;20043;-72
2022/04/26 12:38:28;;;;;;;4.35;3.20;;;;;;;19.78;41.01;99964.13;5096395;28;20044;-73
2022/04/26 12:41:05;;;;;;;4.70;2.80;;;;;;;20.10;40.24;99973.50;5114763;28;20047;-72
2022/04/26 12:43:35;;;;;;;4.80;3.08;;;;;;;20.04;40.03;99966.00;5096141;28;20047;-72
2022/04/26 12:46:06;;;;;;;5.65;3.40;;;;;;;20.18;39.85;99957.28;5095841;28;20054;-73
2022/04/26 12:51:24;;;;;;;4.45;2.95;;;;;;;20.08;40.99;99959.28;5096346;28;20047;-72
2022/04/26 12:54:08;;;;;;;4.80;2.70;;;;;;;19.98;40.54;99953.97;5114935;28;20088;-72
2022/04/26 12:56:36;;;;;;;5.30;2.72;;;;;;;20.10;40.45;99955.38;5113933;28;20040;-72
2022/04/26 12:59:15;;;;;;;6.65;3.00;;;;;;;20.00;40.35;99949.25;5096189;28;20169;-72
2022/04/26 13:01:43;;;;;;;6.05;3.03;;;;;;;19.77;39.98;99956.16;5095867;28;20142;-73
2022/04/26 13:04:12;;;;;;;5.82;2.97;;;;;;;19.72;41.00;99954.81;5096069;28;20051;-72
2022/04/26 13:06:40;;;;;;;4.65;2.80;;;;;;;19.83;40.23;99950.13;5095802;28;20039;-72
2022/04/26 13:09:29;;;;;;;5.70;2.55;;;;;;;19.71;40.81;99953.09;5095654;28;20074;-72
2022/04/26 13:11:58;;;;;;;5.18;3.03;;;;;;;19.82;41.13;99949.28;5113606;28;20055;-72
2022/04/26 13:14:28;;;;;;;4.55;2.90;;;;;;;19.65;40.90;99950.16;5096113;28;20460;-72
2022/04/26 13:17:20;;;;;;;4.25;2.55;;;;;;;19.78;41.49;99947.88;5114016;28;20036;-72
2022/04/26 13:19:48;;;;;;;6.27;2.60;;;;;;;20.05;41.57;99959.56;5095772;28;20051;-72
2022/04/26 13:22:18;;;;;;;4.10;2.60;;;;;;;20.04;39.77;99947.91;5095978;28;20040;-72
2022/04/26 13:24:46;;;;;;;4.25;2.70;;;;;;;19.97;40.40;99953.09;5113483;28;20051;-72
2022/04/26 13:27:14;;;;;;;3.67;2.40;;;;;;;19.86;39.51;99947.94;5095745;28;20061;-72
2022/04/26 13:29:48;;;;;;;5.10;2.47;;;;;;;19.92;40.39;99950.03;5095134;28;20043;-72
2022/04/26 13:32:17;;;;;;;4.35;2.65;;;;;;;20.16;39.53;99946.59;5095617;28;20047;-72
2022/04/26 13:34:48;;;;;;;5.93;2.90;;;;;;;20.09;39.39;99947.44;5095240;28;20073;-72
2022/04/26 13:37:17;;;;;;;5.72;3.00;;;;;;;20.05;39.79;99948.75;5095414;28;20044;-72
2022/04/26 13:39:45;;;;;;;5.40;2.90;;;;;;;19.86;40.13;99960.63;5113492;28;20422;-72
2022/04/26 13:42:14;;;;;;;4.78;2.92;;;;;;;19.60;40.30;99945.25;5113260;28;20047;-73
2022/04/26 13:44:44;;;;;;;4.07;2.60;;;;;;;19.45;40.13;99942.22;5112912;28;20103;-72
2022/04/26 13:47:13;;;;;;;4.03;2.50;;;;;;;19.47;41.39;99957.44;5095026;28;20039;-72
2022/04/26 13:49:41;;;;;;;6.95;2.92;;;;;;;19.27;41.63;99949.50;5095110;28;20044;-72
2022/04/26 13:52:10;;;;;;;3.78;2.30;;;;;;;19.15;42.04;99940.78;5113107;28;20043;-72
2022/04/26 13:54:38;;;;;;;6.90;3.20;;;;;;;19.07;41.48;99948.78;5094746;28;20541;-73
2022/04/26 13:57:06;;;;;;;3.95;2.42;;;;;;;19.10;42.26;99950.34;5094931;28;20071;-72
2022/04/26 13:59:36;;;;;;;3.65;2.35;;;;;;;19.08;42.28;99945.09;5094817;28;20131;-72
2022/04/26 14:02:07;;;;;;;4.13;2.72;;;;;;;19.17;42.37;99952.28;5095329;28;20052;-72
2022/04/26 14:04:38;;;;;;;5.80;2.60;;;;;;;19.07;42.98;99954.19;5113296;28;20134;-72
2022/04/26 14:07:07;;;;;;;5.32;2.75;;;;;;;19.07;42.78;99953.34;5094930;28;20047;-72
2022/04/26 14:09:36;;;;;;;4.53;2.40;;;;;;;19.15;43.58;99950.75;5112965;28;20546;-72
2022/04/26 14:12:07;;;;;;;3.83;2.33;;;;;;;19.26;42.58;99947.78;5095034;28;20058;-72
2022/04/26 14:22:58;;;;;;;2.92;2.03;;;;;;;19.56;41.90;99943.00;5094901;28;20051;-72
2022/04/26 14:25:26;;;;;;;4.07;2.60;;;;;;;19.67;42.07;99945.44;5115529;28;20043;-72
2022/04/26 14:27:55;;;;;;;4.13;2.50;;;;;;;19.64;41.45;99945.78;5099964;28;20050;-72
2022/04/26 14:30:23;;;;;;;5.97;2.75;;;;;;;19.65;41.79;99931.22;5101869;28;20420;-72
2022/04/26 14:33:11;;;;;;;5.13;2.67;;;;;;;19.59;42.30;99939.97;5119755;28;20045;-72
2022/04/26 14:35:39;;;;;;;8.10;3.17;;;;;;;19.62;42.38;99943.22;5099349;28;20501;-73
2022/04/26 14:38:10;;;;;;;6.03;2.92;;;;;;;19.55;41.97;99946.69;5117788;28;20040;-72
2022/04/26 14:40:39;;;;;;;4.95;2.95;;;;;;;19.39;42.00;99944.69;5118454;28;20043;-72
2022/04/26 14:43:09;;;;;;;3.95;2.50;;;;;;;19.31;43.08;99940.09;5117984;28;20051;-72
2022/04/26 14:45:44;;;;;;;5.15;2.90;;;;;;;19.17;42.55;99938.75;5117146;28;20122;-72
2022/04/26 14:48:16;;;;;;;7.80;3.30;;;;;;;19.25;42.66;99948.81;5117205;28;20065;-72
2022/04/26 14:50:55;;;;;;;5.32;2.92;;;;;;;19.40;42.62;99944.56;5117077;28;20050;-73
2022/04/26 14:53:24;;;;;;;6.15;2.65;;;;;;;19.41;42.13;99946.25;5098216;28;20493;-72
2022/04/26 14:56:10;;;;;;;4.90;2.45;;;;;;;19.43;42.78;99949.63;5098661;28;20055;-72
2022/04/26 14:59:01;;;;;;;3.97;2.55;;;;;;;19.41;42.98;99951.66;5098476;28;20057;-72
2022/04/26 15:01:36;;;;;;;5.13;2.70;;;;;;;19.28;42.57;99939.53;5116476;28;20101;-72
2022/04/26 15:04:07;;;;;;;5.55;2.90;;;;;;;19.18;42.93;99945.00;5116610;28;20458;-72
2022/04/26 15:06:35;;;;;;;4.00;2.60;;;;;;;19.31;42.66;99944.63;5098668;28;20133;-72
2022/04/26 15:16:37;;;;;;;4.65;2.60;;;;;;;19.31;43.33;99939.22;5116305;28;20051;-72
2022/04/26 15:17:23;;;;;;;4.10;2.70;;;;;;;19.43;43.04;99933.41;5098088;28;20044;-71
2022/04/26 15:19:53;;;;;;;5.07;3.05;;;;;;;19.37;42.82;99936.72;5116117;28;20126;-72
2022/04/26 15:22:22;;;;;;;5.35;3.58;;;;;;;19.20;42.82;99937.59;5098196;28;20052;-72
2022/04/26 15:24:54;;;;;;;6.05;3.28;;;;;;;19.20;43.13;99948.41;5097750;28;20040;-72
2022/04/26 15:27:22;;;;;;;4.70;2.85;;;;;;;19.24;43.38;99935.44;5098125;28;20469;-72
2022/04/26 15:29:51;;;;;;;6.68;3.30;;;;;;;19.26;42.92;99934.28;5115670;28;20043;-72
2022/04/26 15:32:23;;;;;;;5.68;3.58;;;;;;;19.24;42.80;99928.19;5116274;28;20043;-72
2022/04/26 15:34:53;;;;;;;5.63;3.07;;;;;;;19.22;43.14;99930.19;5097825;28;20126;-73
2022/04/26 15:37:24;;;;;;;6.07;2.88;;;;;;;19.28;42.91;99929.56;5097786;28;20451;-72
2022/04/26 15:39:53;;;;;;;4.70;2.70;;;;;;;19.20;43.72;99928.63;5115817;28;20516;-73
2022/04/26 15:42:21;;;;;;;5.03;2.75;;;;;;;19.10;43.11;99920.59;5116061;28;20043;-71
2022/04/26 15:44:50;;;;;;;6.95;3.70;;;;;;;19.11;43.02;99925.03;5115768;28;20044;-72
2022/04/26 15:47:19;;;;;;;9.25;3.67;;;;;;;19.04;43.31;99926.66;5115660;28;20050;-72
2022/04/26 15:49:47;;;;;;;5.47;3.30;;;;;;;18.93;43.76;99929.59;5097555;28;20073;-73
2022/04/26 15:52:17;;;;;;;4.28;2.95;;;;;;;18.87;44.10;99926.47;5115620;28;20051;-72
2022/04/26 15:54:45;;;;;;;5.90;3.20;;;;;;;18.93;44.42;99927.72;5097208;28;20067;-72
2022/04/26 15:57:14;;;;;;;5.75;3.58;;;;;;;18.85;44.15;99928.47;5115354;28;20043;-72
2022/04/26 15:59:42;;;;;;;6.90;3.10;;;;;;;18.80;44.28;99924.53;5097248;28;20101;-73